sensor_id;sensor_type;location;lat;lon;timestamp;temperature;humidity
60495;DHT22;46342;49.046;11.920;2023-01-15T00:00:50;9.90;71.50
60495;DHT22;46342;49.046;11.920;2023-01-15T00:03:17;9.90;71.50
60495;DHT22;46342;49.046;11.920;2023-01-15T00:05:42;9.90;71.50
60495;DHT22;46342;49.046;11.920;2023-01-15T00:08:08;9.90;71.50
60495;DHT22;46342;49.046;11.920;2023-01-15T00:10:34;9.90;71.50
60495;DHT22;46342;49.046;11.920;2023-01-15T00:13:00;9.90;71.50
60495;DHT22;46342;49.046;11.920;2023-01-15T00:15:26;10.00;70.30
60495;DHT22;46342;49.046;11.920;2023-01-15T00:17:51;10.00;70.30
60495;DHT22;46342;49.046;11.920;2023-01-15T00:20:17;10.00;70.30
60495;DHT22;46342;49.046;11.920;2023-01-15T00:22:42;10.00;70.30
60495;DHT22;46342;49.046;11.920;2023-01-15T00:25:09;10.00;70.30
60495;DHT22;46342;49.046;11.920;2023-01-15T00:27:53;10.00;70.30
60495;DHT22;46342;49.046;11.920;2023-01-15T00:30:19;10.00;70.20
60495;DHT22;46342;49.046;11.920;2023-01-15T00:32:44;10.10;70.30
60495;DHT22;46342;49.046;11.920;2023-01-15T00:35:19;10.00;70.20
60495;DHT22;46342;49.046;11.920;2023-01-15T00:37:44;10.10;70.70
60495;DHT22;46342;49.046;11.920;2023-01-15T00:40:11;10.10;70.30
60495;DHT22;46342;49.046;11.920;2023-01-15T00:42:37;10.10;70.50
60495;DHT22;46342;49.046;11.920;2023-01-15T00:45:04;10.10;70.30
60495;DHT22;46342;49.046;11.920;2023-01-15T00:47:38;10.10;70.40
60495;DHT22;46342;49.046;11.920;2023-01-15T00:50:06;10.10;70.70
60495;DHT22;46342;49.046;11.920;2023-01-15T00:52:32;10.10;70.50
60495;DHT22;46342;49.046;11.920;2023-01-15T00:54:57;10.10;70.40
60495;DHT22;46342;49.046;11.920;2023-01-15T00:57:23;10.10;70.40
60495;DHT22;46342;49.046;11.920;2023-01-15T00:59:48;10.10;70.40
60495;DHT22;46342;49.046;11.920;2023-01-15T01:02:14;10.20;70.40
60495;DHT22;46342;49.046;11.920;2023-01-15T01:04:40;10.20;70.40
60495;DHT22;46342;49.046;11.920;2023-01-15T01:07:05;10.20;70.50
60495;DHT22;46342;49.046;11.920;2023-01-15T01:09:31;10.20;70.40
60495;DHT22;46342;49.046;11.920;2023-01-15T01:11:56;10.20;70.40
60495;DHT22;46342;49.046;11.920;2023-01-15T01:14:22;10.20;70.40
60495;DHT22;46342;49.046;11.920;2023-01-15T01:16:47;10.20;70.40
60495;DHT22;46342;49.046;11.920;2023-01-15T01:19:19;10.20;70.40
60495;DHT22;46342;49.046;11.920;2023-01-15T01:21:46;10.20;70.60
60495;DHT22;46342;49.046;11.920;2023-01-15T01:24:15;10.20;70.40
60495;DHT22;46342;49.046;11.920;2023-01-15T01:26:41;10.20;70.40
60495;DHT22;46342;49.046;11.920;2023-01-15T01:29:11;10.30;70.60
60495;DHT22;46342;49.046;11.920;2023-01-15T01:31:36;10.30;70.60
60495;DHT22;46342;49.046;11.920;2023-01-15T01:34:02;10.30;70.40
60495;DHT22;46342;49.046;11.920;2023-01-15T01:36:30;10.30;70.40
60495;DHT22;46342;49.046;11.920;2023-01-15T01:38:56;10.30;70.40
60495;DHT22;46342;49.046;11.920;2023-01-15T01:41:22;10.40;71.00
60495;DHT22;46342;49.046;11.920;2023-01-15T01:44:56;10.30;70.10
60495;DHT22;46342;49.046;11.920;2023-01-15T01:46:52;10.30;70.40
60495;DHT22;46342;49.046;11.920;2023-01-15T01:49:18;10.30;70.00
60495;DHT22;46342;49.046;11.920;2023-01-15T01:51:47;10.30;70.10
60495;DHT22;46342;49.046;11.920;2023-01-15T01:54:17;10.30;70.20
60495;DHT22;46342;49.046;11.920;2023-01-15T01:56:44;10.30;70.10
60495;DHT22;46342;49.046;11.920;2023-01-15T01:59:10;10.30;70.00
60495;DHT22;46342;49.046;11.920;2023-01-15T02:01:37;10.30;70.00
60495;DHT22;46342;49.046;11.920;2023-01-15T02:04:05;10.20;69.70
60495;DHT22;46342;49.046;11.920;2023-01-15T02:06:32;10.30;70.00
60495;DHT22;46342;49.046;11.920;2023-01-15T02:08:58;10.30;69.80
60495;DHT22;46342;49.046;11.920;2023-01-15T02:11:24;10.20;69.70
60495;DHT22;46342;49.046;11.920;2023-01-15T02:28:03;10.00;68.70
60495;DHT22;46342;49.046;11.920;2023-01-15T02:30:40;10.10;68.60
60495;DHT22;46342;49.046;11.920;2023-01-15T02:33:24;10.10;68.90
60495;DHT22;46342;49.046;11.920;2023-01-15T02:35:56;10.00;68.70
60495;DHT22;46342;49.046;11.920;2023-01-15T02:38:28;9.90;69.80
60495;DHT22;46342;49.046;11.920;2023-01-15T02:40:58;9.90;69.80
60495;DHT22;46342;49.046;11.920;2023-01-15T02:43:26;9.90;69.80
60495;DHT22;46342;49.046;11.920;2023-01-15T02:45:56;9.80;69.60
60495;DHT22;46342;49.046;11.920;2023-01-15T02:48:25;9.80;69.70
60495;DHT22;46342;49.046;11.920;2023-01-15T02:51:07;9.80;69.70
60495;DHT22;46342;49.046;11.920;2023-01-15T02:53:35;9.80;69.90
60495;DHT22;46342;49.046;11.920;2023-01-15T02:56:06;9.70;69.80
60495;DHT22;46342;49.046;11.920;2023-01-15T02:58:36;9.70;69.90
60495;DHT22;46342;49.046;11.920;2023-01-15T03:01:10;9.70;70.00
60495;DHT22;46342;49.046;11.920;2023-01-15T03:07:04;9.60;70.10
60495;DHT22;46342;49.046;11.920;2023-01-15T03:09:05;9.60;70.20
60495;DHT22;46342;49.046;11.920;2023-01-15T03:11:34;9.60;70.10
60495;DHT22;46342;49.046;11.920;2023-01-15T03:14:22;9.50;70.00
60495;DHT22;46342;49.046;11.920;2023-01-15T03:16:57;9.50;70.00
60495;DHT22;46342;49.046;11.920;2023-01-15T03:21:56;9.50;70.00
60495;DHT22;46342;49.046;11.920;2023-01-15T03:24:31;9.50;70.10
60495;DHT22;46342;49.046;11.920;2023-01-15T03:26:58;9.50;70.30
60495;DHT22;46342;49.046;11.920;2023-01-15T03:29:28;9.50;70.20
60495;DHT22;46342;49.046;11.920;2023-01-15T03:31:55;9.50;70.30
60495;DHT22;46342;49.046;11.920;2023-01-15T03:34:21;9.40;70.10
60495;DHT22;46342;49.046;11.920;2023-01-15T03:36:46;9.40;70.10
60495;DHT22;46342;49.046;11.920;2023-01-15T03:39:12;9.40;70.10
60495;DHT22;46342;49.046;11.920;2023-01-15T03:41:47;9.40;70.10
60495;DHT22;46342;49.046;11.920;2023-01-15T03:44:21;9.40;70.30
60495;DHT22;46342;49.046;11.920;2023-01-15T03:54:57;9.40;70.30
60495;DHT22;46342;49.046;11.920;2023-01-15T03:57:40;9.40;70.30
60495;DHT22;46342;49.046;11.920;2023-01-15T04:00:31;9.40;70.50
60495;DHT22;46342;49.046;11.920;2023-01-15T04:03:00;9.40;70.50
60495;DHT22;46342;49.046;11.920;2023-01-15T04:05:27;9.40;70.20
60495;DHT22;46342;49.046;11.920;2023-01-15T04:07:54;9.40;70.30
60495;DHT22;46342;49.046;11.920;2023-01-15T04:10:21;9.40;70.30
60495;DHT22;46342;49.046;11.920;2023-01-15T04:12:46;9.40;70.50
60495;DHT22;46342;49.046;11.920;2023-01-15T04:15:12;9.40;70.10
60495;DHT22;46342;49.046;11.920;2023-01-15T04:17:38;9.40;70.10
60495;DHT22;46342;49.046;11.920;2023-01-15T04:20:04;9.40;70.20
60495;DHT22;46342;49.046;11.920;2023-01-15T04:22:30;9.40;70.30
60495;DHT22;46342;49.046;11.920;2023-01-15T04:24:56;9.40;70.30
60495;DHT22;46342;49.046;11.920;2023-01-15T04:27:22;9.40;70.40
60495;DHT22;46342;49.046;11.920;2023-01-15T04:29:47;9.40;70.40
60495;DHT22;46342;49.046;11.920;2023-01-15T04:32:14;9.40;70.40
60495;DHT22;46342;49.046;11.920;2023-01-15T04:34:39;9.40;70.40
60495;DHT22;46342;49.046;11.920;2023-01-15T04:37:05;9.40;71.30
60495;DHT22;46342;49.046;11.920;2023-01-15T04:39:31;9.40;70.40
60495;DHT22;46342;49.046;11.920;2023-01-15T04:41:57;9.40;70.40
60495;DHT22;46342;49.046;11.920;2023-01-15T04:44:41;9.40;70.50
60495;DHT22;46342;49.046;11.920;2023-01-15T04:47:07;9.40;70.40
60495;DHT22;46342;49.046;11.920;2023-01-15T04:49:32;9.40;70.40
60495;DHT22;46342;49.046;11.920;2023-01-15T04:51:58;9.40;70.30
60495;DHT22;46342;49.046;11.920;2023-01-15T04:54:24;9.40;70.40
60495;DHT22;46342;49.046;11.920;2023-01-15T04:56:51;9.40;70.40
60495;DHT22;46342;49.046;11.920;2023-01-15T04:59:19;9.50;70.50
60495;DHT22;46342;49.046;11.920;2023-01-15T05:01:45;9.40;70.30
60495;DHT22;46342;49.046;11.920;2023-01-15T05:04:11;9.50;70.40
60495;DHT22;46342;49.046;11.920;2023-01-15T05:06:37;9.50;70.30
60495;DHT22;46342;49.046;11.920;2023-01-15T05:09:03;9.50;70.40
60495;DHT22;46342;49.046;11.920;2023-01-15T05:11:29;9.50;70.30
60495;DHT22;46342;49.046;11.920;2023-01-15T05:13:55;9.50;70.30
60495;DHT22;46342;49.046;11.920;2023-01-15T05:16:23;9.50;70.20
60495;DHT22;46342;49.046;11.920;2023-01-15T05:18:49;9.50;70.30
60495;DHT22;46342;49.046;11.920;2023-01-15T05:21:19;9.50;70.30
60495;DHT22;46342;49.046;11.920;2023-01-15T05:23:45;9.50;70.00
60495;DHT22;46342;49.046;11.920;2023-01-15T05:26:11;9.50;70.00
60495;DHT22;46342;49.046;11.920;2023-01-15T05:28:37;9.50;70.00
60495;DHT22;46342;49.046;11.920;2023-01-15T05:31:23;9.50;70.10
60495;DHT22;46342;49.046;11.920;2023-01-15T05:33:49;9.50;70.10
60495;DHT22;46342;49.046;11.920;2023-01-15T05:36:18;9.50;70.10
60495;DHT22;46342;49.046;11.920;2023-01-15T05:38:44;9.50;70.00
60495;DHT22;46342;49.046;11.920;2023-01-15T05:41:18;9.50;70.10
60495;DHT22;46342;49.046;11.920;2023-01-15T05:44:05;9.50;70.10
60495;DHT22;46342;49.046;11.920;2023-01-15T05:46:32;9.50;70.00
60495;DHT22;46342;49.046;11.920;2023-01-15T05:49:02;9.50;70.00
60495;DHT22;46342;49.046;11.920;2023-01-15T05:51:28;9.50;70.00
60495;DHT22;46342;49.046;11.920;2023-01-15T05:53:55;9.50;70.00
60495;DHT22;46342;49.046;11.920;2023-01-15T05:56:21;9.50;70.00
60495;DHT22;46342;49.046;11.920;2023-01-15T05:58:47;9.50;70.00
60495;DHT22;46342;49.046;11.920;2023-01-15T06:01:12;9.40;69.90
60495;DHT22;46342;49.046;11.920;2023-01-15T06:03:38;9.40;69.90
60495;DHT22;46342;49.046;11.920;2023-01-15T06:06:05;9.40;69.90
60495;DHT22;46342;49.046;11.920;2023-01-15T06:08:30;9.40;69.90
60495;DHT22;46342;49.046;11.920;2023-01-15T06:10:56;9.40;69.80
60495;DHT22;46342;49.046;11.920;2023-01-15T06:13:21;9.40;69.90
60495;DHT22;46342;49.046;11.920;2023-01-15T06:15:47;9.40;69.90
60495;DHT22;46342;49.046;11.920;2023-01-15T06:18:12;9.40;69.90
60495;DHT22;46342;49.046;11.920;2023-01-15T06:20:41;9.40;70.00
60495;DHT22;46342;49.046;11.920;2023-01-15T06:23:07;9.40;70.00
60495;DHT22;46342;49.046;11.920;2023-01-15T06:25:34;9.40;70.00
60495;DHT22;46342;49.046;11.920;2023-01-15T06:28:02;9.40;70.00
60495;DHT22;46342;49.046;11.920;2023-01-15T06:30:28;9.40;69.90
60495;DHT22;46342;49.046;11.920;2023-01-15T06:32:53;9.40;69.90
60495;DHT22;46342;49.046;11.920;2023-01-15T06:35:19;9.40;70.00
60495;DHT22;46342;49.046;11.920;2023-01-15T06:37:44;9.40;69.90
60495;DHT22;46342;49.046;11.920;2023-01-15T06:40:10;9.40;70.00
60495;DHT22;46342;49.046;11.920;2023-01-15T06:42:36;9.40;70.00
60495;DHT22;46342;49.046;11.920;2023-01-15T06:45:20;9.30;70.00
60495;DHT22;46342;49.046;11.920;2023-01-15T06:48:04;9.40;70.10
60495;DHT22;46342;49.046;11.920;2023-01-15T06:50:31;9.30;70.00
60495;DHT22;46342;49.046;11.920;2023-01-15T06:52:56;9.40;70.20
60495;DHT22;46342;49.046;11.920;2023-01-15T06:55:22;9.40;70.20
60495;DHT22;46342;49.046;11.920;2023-01-15T06:57:48;9.30;70.10
60495;DHT22;46342;49.046;11.920;2023-01-15T07:00:14;9.30;70.20
60495;DHT22;46342;49.046;11.920;2023-01-15T07:02:40;9.30;70.20
60495;DHT22;46342;49.046;11.920;2023-01-15T07:05:06;9.40;70.40
60495;DHT22;46342;49.046;11.920;2023-01-15T07:07:32;9.40;70.50
60495;DHT22;46342;49.046;11.920;2023-01-15T07:09:58;9.40;70.50
60495;DHT22;46342;49.046;11.920;2023-01-15T07:12:24;9.40;70.50
60495;DHT22;46342;49.046;11.920;2023-01-15T07:14:50;9.40;71.50
60495;DHT22;46342;49.046;11.920;2023-01-15T07:17:15;9.40;70.70
60495;DHT22;46342;49.046;11.920;2023-01-15T07:19:41;9.50;70.70
60495;DHT22;46342;49.046;11.920;2023-01-15T07:22:08;9.50;70.80
60495;DHT22;46342;49.046;11.920;2023-01-15T07:24:34;9.50;70.80
60495;DHT22;46342;49.046;11.920;2023-01-15T07:27:00;9.50;70.80
60495;DHT22;46342;49.046;11.920;2023-01-15T07:29:26;9.60;70.80
60495;DHT22;46342;49.046;11.920;2023-01-15T07:31:52;9.60;70.80
60495;DHT22;46342;49.046;11.920;2023-01-15T07:34:18;9.60;70.70
60495;DHT22;46342;49.046;11.920;2023-01-15T07:36:43;9.60;70.60
60495;DHT22;46342;49.046;11.920;2023-01-15T07:39:10;9.60;70.70
60495;DHT22;46342;49.046;11.920;2023-01-15T07:41:36;9.70;70.90
60495;DHT22;46342;49.046;11.920;2023-01-15T07:44:21;9.60;70.80
60495;DHT22;46342;49.046;11.920;2023-01-15T07:47:15;9.70;71.00
60495;DHT22;46342;49.046;11.920;2023-01-15T07:50:00;9.70;71.30
60495;DHT22;46342;49.046;11.920;2023-01-15T07:52:26;9.70;71.10
60495;DHT22;46342;49.046;11.920;2023-01-15T07:54:52;9.70;71.30
60495;DHT22;46342;49.046;11.920;2023-01-15T07:57:19;9.90;71.50
60495;DHT22;46342;49.046;11.920;2023-01-15T07:59:46;9.80;72.50
60495;DHT22;46342;49.046;11.920;2023-01-15T08:02:11;9.90;71.70
60495;DHT22;46342;49.046;11.920;2023-01-15T08:04:37;9.90;71.50
60495;DHT22;46342;49.046;11.920;2023-01-15T08:07:04;10.00;70.40
60495;DHT22;46342;49.046;11.920;2023-01-15T08:09:30;10.00;70.50
60495;DHT22;46342;49.046;11.920;2023-01-15T08:11:58;10.00;70.60
60495;DHT22;46342;49.046;11.920;2023-01-15T08:14:43;10.10;70.90
60495;DHT22;46342;49.046;11.920;2023-01-15T08:17:27;10.20;70.90
60495;DHT22;46342;49.046;11.920;2023-01-15T08:19:52;10.20;71.00
60495;DHT22;46342;49.046;11.920;2023-01-15T08:22:18;10.30;71.20
60495;DHT22;46342;49.046;11.920;2023-01-15T08:24:43;10.40;71.30
60495;DHT22;46342;49.046;11.920;2023-01-15T08:27:09;10.40;71.40
60495;DHT22;46342;49.046;11.920;2023-01-15T08:29:35;10.50;71.50
60495;DHT22;46342;49.046;11.920;2023-01-15T08:32:00;10.50;71.50
60495;DHT22;46342;49.046;11.920;2023-01-15T08:34:26;10.60;71.50
60495;DHT22;46342;49.046;11.920;2023-01-15T08:36:51;10.60;71.50
60495;DHT22;46342;49.046;11.920;2023-01-15T08:39:25;10.70;71.60
60495;DHT22;46342;49.046;11.920;2023-01-15T08:41:50;10.80;71.70
60495;DHT22;46342;49.046;11.920;2023-01-15T08:44:16;10.80;71.70
60495;DHT22;46342;49.046;11.920;2023-01-15T08:46:42;10.90;71.80
60495;DHT22;46342;49.046;11.920;2023-01-15T08:49:09;10.90;71.80
60495;DHT22;46342;49.046;11.920;2023-01-15T08:51:35;11.00;71.90
60495;DHT22;46342;49.046;11.920;2023-01-15T08:54:00;11.10;71.90
60495;DHT22;46342;49.046;11.920;2023-01-15T08:56:26;11.10;71.90
60495;DHT22;46342;49.046;11.920;2023-01-15T08:58:51;11.20;71.90
60495;DHT22;46342;49.046;11.920;2023-01-15T09:01:17;11.40;72.10
60495;DHT22;46342;49.046;11.920;2023-01-15T09:03:43;11.30;72.00
60495;DHT22;46342;49.046;11.920;2023-01-15T09:06:09;11.30;71.90
60495;DHT22;46342;49.046;11.920;2023-01-15T09:08:36;11.50;72.10
60495;DHT22;46342;49.046;11.920;2023-01-15T09:11:03;11.50;72.00
60495;DHT22;46342;49.046;11.920;2023-01-15T09:13:30;11.50;71.90
60495;DHT22;46342;49.046;11.920;2023-01-15T09:15:59;11.60;71.90
60495;DHT22;46342;49.046;11.920;2023-01-15T09:18:25;11.60;72.10
60495;DHT22;46342;49.046;11.920;2023-01-15T09:20:51;11.60;71.70
60495;DHT22;46342;49.046;11.920;2023-01-15T09:23:16;11.60;71.50
60495;DHT22;46342;49.046;11.920;2023-01-15T09:26:02;11.60;71.30
60495;DHT22;46342;49.046;11.920;2023-01-15T09:28:29;11.60;71.60
60495;DHT22;46342;49.046;11.920;2023-01-15T09:30:55;11.60;71.80
60495;DHT22;46342;49.046;11.920;2023-01-15T09:33:21;11.60;70.90
60495;DHT22;46342;49.046;11.920;2023-01-15T09:35:46;11.50;70.70
60495;DHT22;46342;49.046;11.920;2023-01-15T09:38:16;11.50;70.70
60495;DHT22;46342;49.046;11.920;2023-01-15T09:40:54;11.50;70.80
60495;DHT22;46342;49.046;11.920;2023-01-15T09:43:49;11.40;70.90
60495;DHT22;46342;49.046;11.920;2023-01-15T09:46:27;11.40;71.00
60495;DHT22;46342;49.046;11.920;2023-01-15T09:49:22;11.30;70.40
60495;DHT22;46342;49.046;11.920;2023-01-15T09:54:38;11.30;70.00
60495;DHT22;46342;49.046;11.920;2023-01-15T09:57:11;11.20;69.60
60495;DHT22;46342;49.046;11.920;2023-01-15T09:59:40;11.20;69.30
60495;DHT22;46342;49.046;11.920;2023-01-15T10:02:37;11.10;68.90
60495;DHT22;46342;49.046;11.920;2023-01-15T10:05:34;11.00;68.50
60495;DHT22;46342;49.046;11.920;2023-01-15T10:08:05;10.90;68.00
60495;DHT22;46342;49.046;11.920;2023-01-15T10:10:41;10.90;68.30
60495;DHT22;46342;49.046;11.920;2023-01-15T10:15:53;10.70;67.60
60495;DHT22;46342;49.046;11.920;2023-01-15T10:18:22;10.60;68.00
60495;DHT22;46342;49.046;11.920;2023-01-15T10:20:51;10.50;68.00
60495;DHT22;46342;49.046;11.920;2023-01-15T10:23:34;10.50;68.30
60495;DHT22;46342;49.046;11.920;2023-01-15T10:30:03;10.40;68.30
60495;DHT22;46342;49.046;11.920;2023-01-15T10:32:21;10.40;68.20
60495;DHT22;46342;49.046;11.920;2023-01-15T10:37:47;10.30;68.30
60495;DHT22;46342;49.046;11.920;2023-01-15T10:43:30;10.10;67.90
60495;DHT22;46342;49.046;11.920;2023-01-15T10:46:04;10.00;68.00
60495;DHT22;46342;49.046;11.920;2023-01-15T10:48:41;10.00;68.00
60495;DHT22;46342;49.046;11.920;2023-01-15T10:56:39;9.90;69.60
60495;DHT22;46342;49.046;11.920;2023-01-15T11:01:37;9.80;69.30
60495;DHT22;46342;49.046;11.920;2023-01-15T11:04:04;9.80;69.40
60495;DHT22;46342;49.046;11.920;2023-01-15T11:06:31;9.80;70.60
60495;DHT22;46342;49.046;11.920;2023-01-15T11:08:57;9.70;69.80
60495;DHT22;46342;49.046;11.920;2023-01-15T11:11:43;9.80;70.00
60495;DHT22;46342;49.046;11.920;2023-01-15T11:14:41;9.80;70.20
60495;DHT22;46342;49.046;11.920;2023-01-15T11:17:35;9.80;69.90
60495;DHT22;46342;49.046;11.920;2023-01-15T11:20:32;9.70;69.40
60495;DHT22;46342;49.046;11.920;2023-01-15T11:23:07;9.70;69.50
60495;DHT22;46342;49.046;11.920;2023-01-15T11:25:34;9.60;69.30
60495;DHT22;46342;49.046;11.920;2023-01-15T11:28:03;9.60;69.30
60495;DHT22;46342;49.046;11.920;2023-01-15T11:30:32;9.60;69.40
60495;DHT22;46342;49.046;11.920;2023-01-15T11:33:01;9.50;69.10
60495;DHT22;46342;49.046;11.920;2023-01-15T11:35:31;9.40;69.00
60495;DHT22;46342;49.046;11.920;2023-01-15T11:38:04;9.40;69.10
60495;DHT22;46342;49.046;11.920;2023-01-15T11:40:30;9.40;69.00
60495;DHT22;46342;49.046;11.920;2023-01-15T11:42:56;9.30;68.90
60495;DHT22;46342;49.046;11.920;2023-01-15T11:45:47;9.30;68.90
60495;DHT22;46342;49.046;11.920;2023-01-15T11:48:46;9.20;68.90
60495;DHT22;46342;49.046;11.920;2023-01-15T11:51:41;9.20;69.00
60495;DHT22;46342;49.046;11.920;2023-01-15T11:54:11;9.20;69.00
60495;DHT22;46342;49.046;11.920;2023-01-15T11:56:41;9.10;69.10
60495;DHT22;46342;49.046;11.920;2023-01-15T11:59:10;9.10;69.20
60495;DHT22;46342;49.046;11.920;2023-01-15T12:01:44;9.10;69.30
60495;DHT22;46342;49.046;11.920;2023-01-15T12:07:12;9.10;69.80
60495;DHT22;46342;49.046;11.920;2023-01-15T12:10:02;9.10;69.80
60495;DHT22;46342;49.046;11.920;2023-01-15T12:12:40;9.10;69.80
60495;DHT22;46342;49.046;11.920;2023-01-15T12:18:32;9.10;69.60
60495;DHT22;46342;49.046;11.920;2023-01-15T12:24:25;9.20;69.20
60495;DHT22;46342;49.046;11.920;2023-01-15T12:27:48;9.20;69.10
60495;DHT22;46342;49.046;11.920;2023-01-15T12:32:42;9.10;68.80
60495;DHT22;46342;49.046;11.920;2023-01-15T12:35:34;9.10;68.70
60495;DHT22;46342;49.046;11.920;2023-01-15T12:38:23;9.10;68.50
60495;DHT22;46342;49.046;11.920;2023-01-15T12:41:01;9.10;68.30
60495;DHT22;46342;49.046;11.920;2023-01-15T12:43:28;9.10;68.60
60495;DHT22;46342;49.046;11.920;2023-01-15T12:46:18;9.00;68.50
60495;DHT22;46342;49.046;11.920;2023-01-15T12:48:52;9.00;68.40
60495;DHT22;46342;49.046;11.920;2023-01-15T12:51:27;9.00;68.50
60495;DHT22;46342;49.046;11.920;2023-01-15T12:54:05;9.00;68.50
60495;DHT22;46342;49.046;11.920;2023-01-15T12:56:54;9.00;67.90
60495;DHT22;46342;49.046;11.920;2023-01-15T12:59:29;9.00;67.30
60495;DHT22;46342;49.046;11.920;2023-01-15T13:02:23;9.00;67.80
60495;DHT22;46342;49.046;11.920;2023-01-15T13:04:57;8.90;67.20
60495;DHT22;46342;49.046;11.920;2023-01-15T13:07:36;8.90;67.80
60495;DHT22;46342;49.046;11.920;2023-01-15T13:12:42;8.90;67.30
60495;DHT22;46342;49.046;11.920;2023-01-15T13:15:16;8.80;67.70
60495;DHT22;46342;49.046;11.920;2023-01-15T13:20:41;8.80;67.00
60495;DHT22;46342;49.046;11.920;2023-01-15T13:26:02;8.80;67.30
60495;DHT22;46342;49.046;11.920;2023-01-15T13:29:06;8.70;67.30
60495;DHT22;46342;49.046;11.920;2023-01-15T13:34:27;8.70;67.50
60495;DHT22;46342;49.046;11.920;2023-01-15T13:37:04;8.70;67.40
60495;DHT22;46342;49.046;11.920;2023-01-15T13:39:39;8.60;66.90
60495;DHT22;46342;49.046;11.920;2023-01-15T13:42:22;8.60;67.60
60495;DHT22;46342;49.046;11.920;2023-01-15T13:47:31;8.50;67.70
60495;DHT22;46342;49.046;11.920;2023-01-15T13:50:00;8.50;66.80
60495;DHT22;46342;49.046;11.920;2023-01-15T13:52:30;8.50;66.60
60495;DHT22;46342;49.046;11.920;2023-01-15T13:55:00;8.40;66.80
60495;DHT22;46342;49.046;11.920;2023-01-15T13:57:34;8.40;66.50
60495;DHT22;46342;49.046;11.920;2023-01-15T14:00:05;8.40;66.50
60495;DHT22;46342;49.046;11.920;2023-01-15T14:02:34;8.30;66.50
60495;DHT22;46342;49.046;11.920;2023-01-15T14:05:16;8.30;66.40
60495;DHT22;46342;49.046;11.920;2023-01-15T14:07:48;8.30;65.70
60495;DHT22;46342;49.046;11.920;2023-01-15T14:13:35;8.20;65.40
60495;DHT22;46342;49.046;11.920;2023-01-15T14:16:19;8.20;64.70
60495;DHT22;46342;49.046;11.920;2023-01-15T14:19:11;8.10;65.30
60495;DHT22;46342;49.046;11.920;2023-01-15T14:22:17;8.10;65.30
60495;DHT22;46342;49.046;11.920;2023-01-15T14:28:08;8.00;65.00
60495;DHT22;46342;49.046;11.920;2023-01-15T14:39:24;7.90;65.80
60495;DHT22;46342;49.046;11.920;2023-01-15T14:42:15;7.90;64.70
60495;DHT22;46342;49.046;11.920;2023-01-15T14:45:23;7.80;64.60
60495;DHT22;46342;49.046;11.920;2023-01-15T14:47:59;7.80;64.60
60495;DHT22;46342;49.046;11.920;2023-01-15T14:50:32;7.80;65.00
60495;DHT22;46342;49.046;11.920;2023-01-15T14:53:19;7.70;65.20
60495;DHT22;46342;49.046;11.920;2023-01-15T15:01:22;7.70;65.00
60495;DHT22;46342;49.046;11.920;2023-01-15T15:06:16;7.60;65.30
60495;DHT22;46342;49.046;11.920;2023-01-15T15:08:42;7.60;65.50
60495;DHT22;46342;49.046;11.920;2023-01-15T15:11:17;7.60;65.50
60495;DHT22;46342;49.046;11.920;2023-01-15T15:14:05;7.60;65.40
60495;DHT22;46342;49.046;11.920;2023-01-15T15:16:35;7.50;65.50
60495;DHT22;46342;49.046;11.920;2023-01-15T15:19:20;7.50;65.20
60495;DHT22;46342;49.046;11.920;2023-01-15T15:21:49;7.50;65.10
60495;DHT22;46342;49.046;11.920;2023-01-15T15:24:26;7.50;65.30
60495;DHT22;46342;49.046;11.920;2023-01-15T15:26:53;7.50;64.60
60495;DHT22;46342;49.046;11.920;2023-01-15T15:29:19;7.50;65.10
60495;DHT22;46342;49.046;11.920;2023-01-15T15:31:55;7.50;65.20
60495;DHT22;46342;49.046;11.920;2023-01-15T15:36:59;7.40;64.70
60495;DHT22;46342;49.046;11.920;2023-01-15T15:39:41;7.40;64.80
60495;DHT22;46342;49.046;11.920;2023-01-15T15:42:38;7.40;64.50
60495;DHT22;46342;49.046;11.920;2023-01-15T15:45:27;7.40;64.40
60495;DHT22;46342;49.046;11.920;2023-01-15T15:48:12;7.30;64.40
60495;DHT22;46342;49.046;11.920;2023-01-15T15:50:58;7.30;64.60
60495;DHT22;46342;49.046;11.920;2023-01-15T15:53:24;7.20;64.50
60495;DHT22;46342;49.046;11.920;2023-01-15T15:55:50;7.20;64.60
60495;DHT22;46342;49.046;11.920;2023-01-15T15:58:34;7.10;64.40
60495;DHT22;46342;49.046;11.920;2023-01-15T16:01:02;7.10;63.90
60495;DHT22;46342;49.046;11.920;2023-01-15T16:03:30;7.10;64.60
60495;DHT22;46342;49.046;11.920;2023-01-15T16:06:03;7.10;64.40
60495;DHT22;46342;49.046;11.920;2023-01-15T16:08:31;7.00;64.00
60495;DHT22;46342;49.046;11.920;2023-01-15T16:11:01;7.00;64.30
60495;DHT22;46342;49.046;11.920;2023-01-15T16:13:31;7.00;64.40
60495;DHT22;46342;49.046;11.920;2023-01-15T16:16:00;7.00;64.50
60495;DHT22;46342;49.046;11.920;2023-01-15T16:18:30;6.90;64.30
60495;DHT22;46342;49.046;11.920;2023-01-15T16:20:57;6.90;64.50
60495;DHT22;46342;49.046;11.920;2023-01-15T16:23:25;6.90;64.50
60495;DHT22;46342;49.046;11.920;2023-01-15T16:26:18;6.90;64.40
60495;DHT22;46342;49.046;11.920;2023-01-15T16:28:56;6.90;64.30
60495;DHT22;46342;49.046;11.920;2023-01-15T16:31:22;6.90;64.20
60495;DHT22;46342;49.046;11.920;2023-01-15T16:33:56;6.80;64.50
60495;DHT22;46342;49.046;11.920;2023-01-15T16:36:23;6.80;64.20
60495;DHT22;46342;49.046;11.920;2023-01-15T16:38:50;6.80;64.40
60495;DHT22;46342;49.046;11.920;2023-01-15T16:41:39;6.70;64.30
60495;DHT22;46342;49.046;11.920;2023-01-15T16:44:07;6.80;64.00
60495;DHT22;46342;49.046;11.920;2023-01-15T16:46:53;6.70;64.50
60495;DHT22;46342;49.046;11.920;2023-01-15T16:49:27;6.70;64.30
60495;DHT22;46342;49.046;11.920;2023-01-15T16:51:55;6.70;64.50
60495;DHT22;46342;49.046;11.920;2023-01-15T17:04:38;6.70;64.50
60495;DHT22;46342;49.046;11.920;2023-01-15T17:07:23;6.60;64.40
60495;DHT22;46342;49.046;11.920;2023-01-15T17:09:52;6.60;64.30
60495;DHT22;46342;49.046;11.920;2023-01-15T17:14:50;6.60;64.40
60495;DHT22;46342;49.046;11.920;2023-01-15T17:19:42;6.50;64.60
60495;DHT22;46342;49.046;11.920;2023-01-15T17:22:20;6.50;64.70
60495;DHT22;46342;49.046;11.920;2023-01-15T17:24:56;6.50;64.50
60495;DHT22;46342;49.046;11.920;2023-01-15T17:27:23;6.50;64.50
60495;DHT22;46342;49.046;11.920;2023-01-15T17:29:49;6.50;64.70
60495;DHT22;46342;49.046;11.920;2023-01-15T17:32:32;6.50;64.70
60495;DHT22;46342;49.046;11.920;2023-01-15T17:35:00;6.50;64.40
60495;DHT22;46342;49.046;11.920;2023-01-15T17:37:26;6.40;64.60
60495;DHT22;46342;49.046;11.920;2023-01-15T17:39:51;6.40;64.70
60495;DHT22;46342;49.046;11.920;2023-01-15T17:42:18;6.40;64.70
60495;DHT22;46342;49.046;11.920;2023-01-15T17:44:44;6.40;64.70
60495;DHT22;46342;49.046;11.920;2023-01-15T17:47:10;6.40;64.70
60495;DHT22;46342;49.046;11.920;2023-01-15T17:49:36;6.40;64.70
60495;DHT22;46342;49.046;11.920;2023-01-15T17:52:04;6.30;64.70